createdAt,value
2023-04-18T00:01:23.826Z,20.30
2023-04-18T00:03:51.160Z,19.90
2023-04-18T00:06:18.167Z,17.10
2023-04-18T00:08:44.841Z,20.03
2023-04-18T00:11:11.486Z,22.95
2023-04-18T00:13:39.345Z,17.35
2023-04-18T00:16:07.717Z,20.30
2023-04-18T00:18:36.731Z,17.60
2023-04-18T00:21:04.248Z,19.47
2023-04-18T00:23:31.080Z,15.18
2023-04-18T00:25:57.706Z,15.95
2023-04-18T00:28:24.427Z,18.85
2023-04-18T00:30:51.278Z,18.42
2023-04-18T00:33:18.465Z,15.90
2023-04-18T00:35:45.187Z,19.80
2023-04-18T00:38:11.814Z,14.68
2023-04-18T00:40:38.810Z,16.17
2023-04-18T00:43:07.733Z,15.52
2023-04-18T00:45:34.590Z,17.37
2023-04-18T00:48:01.661Z,14.18
2023-04-18T00:50:28.357Z,19.40
2023-04-18T00:52:56.783Z,18.55
2023-04-18T00:55:24.451Z,14.52
2023-04-18T00:57:51.876Z,14.10
2023-04-18T01:00:18.815Z,19.65
2023-04-18T01:02:47.110Z,15.10
2023-04-18T01:05:13.867Z,14.48
2023-04-18T01:07:43.302Z,13.40
2023-04-18T01:10:10.750Z,19.67
2023-04-18T01:12:37.674Z,15.93
2023-04-18T01:15:08.125Z,15.95
2023-04-18T01:17:35.452Z,13.23
2023-04-18T01:20:04.897Z,15.02
2023-04-18T01:22:33.924Z,14.87
2023-04-18T01:25:00.669Z,14.70
2023-04-18T01:27:27.341Z,14.32
2023-04-18T01:29:54.093Z,12.02
2023-04-18T01:32:22.447Z,12.43
2023-04-18T01:34:49.287Z,15.13
2023-04-18T01:37:15.972Z,11.00
2023-04-18T01:39:42.567Z,13.23
2023-04-18T01:42:09.192Z,14.30
2023-04-18T01:44:35.831Z,10.90
2023-04-18T01:47:02.788Z,11.00
2023-04-18T01:49:29.580Z,12.80
2023-04-18T01:51:56.181Z,10.23
2023-04-18T01:54:22.799Z,12.82
2023-04-18T01:56:49.409Z,9.48
2023-04-18T01:59:16.040Z,12.70
2023-04-18T02:01:43.311Z,11.85
2023-04-18T02:04:10.080Z,12.77
2023-04-18T02:06:36.719Z,12.93
2023-04-18T02:09:03.385Z,10.43
2023-04-18T02:11:30.284Z,14.23
2023-04-18T02:13:57.411Z,10.45
2023-04-18T02:16:23.978Z,12.65
2023-04-18T02:18:52.847Z,12.00
2023-04-18T02:21:19.546Z,12.57
2023-04-18T02:23:46.187Z,12.67
2023-04-18T02:26:12.811Z,12.02
2023-04-18T02:28:39.618Z,13.82
2023-04-18T02:31:07.338Z,13.25
2023-04-18T02:33:33.978Z,13.43
2023-04-18T02:36:01.619Z,10.00
2023-04-18T02:38:28.279Z,11.05
2023-04-18T02:40:54.852Z,11.43
2023-04-18T02:43:21.554Z,13.90
2023-04-18T02:45:48.245Z,12.57
2023-04-18T02:48:15.045Z,11.00
2023-04-18T02:50:41.741Z,12.23
2023-04-18T02:53:08.432Z,15.15
2023-04-18T02:55:35.008Z,10.65
2023-04-18T02:58:01.597Z,12.57
2023-04-18T03:00:28.380Z,12.40
2023-04-18T03:02:55.217Z,13.60
2023-04-18T03:05:22.216Z,16.20
2023-04-18T03:07:48.870Z,12.25
2023-04-18T03:10:16.260Z,13.98
2023-04-18T03:12:42.902Z,11.50
2023-04-18T03:15:09.962Z,13.27
2023-04-18T03:17:36.763Z,17.67
2023-04-18T03:20:03.599Z,12.25
2023-04-18T03:22:30.297Z,13.63
2023-04-18T03:24:56.896Z,12.27
2023-04-18T03:27:23.489Z,12.90
2023-04-18T03:29:50.143Z,13.88
2023-04-18T03:32:17.333Z,11.35
2023-04-18T03:34:44.122Z,14.27
2023-04-18T03:37:10.816Z,15.07
2023-04-18T03:39:37.455Z,13.23
2023-04-18T03:42:04.031Z,11.55
2023-04-18T03:44:31.164Z,13.35
2023-04-18T03:46:57.784Z,13.55
2023-04-18T03:49:24.373Z,15.30
2023-04-18T03:51:51.764Z,15.63
2023-04-18T03:54:53.409Z,12.18
2023-04-18T03:57:20.196Z,14.43
2023-04-18T03:59:47.911Z,12.75
2023-04-18T04:02:14.690Z,17.27
2023-04-18T04:04:41.465Z,15.75
2023-04-18T04:07:08.090Z,14.55
2023-04-18T04:09:34.668Z,14.07
2023-04-18T04:12:02.212Z,15.45
2023-04-18T04:14:28.813Z,13.40
2023-04-18T04:16:55.509Z,16.05
2023-04-18T04:19:22.128Z,12.90
2023-04-18T04:21:48.789Z,18.48
2023-04-18T04:24:15.930Z,15.60
2023-04-18T04:26:43.059Z,18.53
2023-04-18T04:29:10.684Z,16.13
2023-04-18T04:31:37.416Z,14.23
2023-04-18T04:34:04.932Z,13.32
2023-04-18T04:36:33.299Z,14.10
2023-04-18T04:38:59.935Z,13.60
2023-04-18T04:41:27.672Z,15.77
2023-04-18T04:43:54.396Z,15.95
2023-04-18T04:46:21.323Z,13.13
2023-04-18T04:48:49.589Z,19.30
2023-04-18T04:51:16.234Z,15.20
2023-04-18T04:53:42.786Z,13.20
2023-04-18T04:56:09.447Z,17.05
2023-04-18T04:58:36.821Z,17.75
2023-04-18T05:01:03.527Z,13.23
2023-04-18T05:03:30.380Z,13.20
2023-04-18T05:05:57.099Z,14.20
2023-04-18T05:08:23.775Z,18.20
2023-04-18T05:10:50.982Z,15.20
2023-04-18T05:13:17.663Z,15.15
2023-04-18T05:15:44.387Z,17.83
2023-04-18T05:18:11.153Z,14.85
2023-04-18T05:20:37.839Z,16.52
2023-04-18T05:23:04.471Z,12.98
2023-04-18T05:25:32.189Z,13.45
2023-04-18T05:28:00.631Z,16.93
2023-04-18T05:30:27.552Z,17.48
2023-04-18T05:32:54.108Z,15.50
2023-04-18T05:35:20.788Z,13.43
2023-04-18T05:37:47.515Z,15.07
2023-04-18T05:40:14.344Z,14.63
2023-04-18T05:42:41.014Z,15.82
2023-04-18T05:45:08.256Z,15.70
2023-04-18T05:47:34.874Z,17.85
2023-04-18T05:50:01.606Z,15.32
2023-04-18T05:52:28.584Z,16.90
2023-04-18T05:54:55.374Z,17.73
2023-04-18T05:57:22.020Z,13.88
2023-04-18T05:59:48.628Z,15.45
2023-04-18T06:02:15.478Z,20.05
2023-04-18T06:04:42.951Z,19.87
2023-04-18T06:07:09.995Z,14.93
2023-04-18T06:09:36.721Z,14.77
2023-04-18T06:12:03.735Z,13.70
2023-04-18T06:14:30.517Z,13.88
2023-04-18T06:16:57.253Z,15.37
2023-04-18T06:19:23.850Z,16.25
2023-04-18T06:21:50.731Z,19.70
2023-04-18T06:24:17.468Z,15.57
2023-04-18T06:26:44.098Z,16.55
2023-04-18T06:29:11.208Z,15.77
2023-04-18T06:31:37.862Z,12.45
2023-04-18T06:34:04.510Z,19.88
2023-04-18T06:36:31.414Z,15.90
2023-04-18T06:38:58.035Z,14.80
2023-04-18T06:41:24.711Z,14.87
2023-04-18T06:44:02.750Z,19.33
2023-04-18T06:46:30.798Z,14.90
2023-04-18T06:48:57.588Z,15.40
2023-04-18T06:51:24.219Z,14.25
2023-04-18T06:53:52.880Z,13.60
2023-04-18T06:56:20.512Z,15.15
2023-04-18T06:58:47.881Z,15.05
2023-04-18T07:01:14.544Z,13.82
2023-04-18T07:03:41.262Z,16.20
2023-04-18T07:06:10.387Z,12.37
2023-04-18T07:08:37.182Z,13.30
2023-04-18T07:11:03.884Z,14.25
2023-04-18T07:13:30.461Z,11.27
2023-04-18T07:15:57.480Z,13.57
2023-04-18T07:18:36.728Z,12.80
2023-04-18T07:21:07.532Z,13.73
2023-04-18T07:23:34.878Z,17.75
2023-04-18T07:26:02.721Z,14.02
2023-04-18T07:28:31.034Z,11.93
2023-04-18T07:30:58.171Z,13.93
2023-04-18T07:33:25.148Z,16.90
2023-04-18T07:35:53.086Z,15.07
2023-04-18T07:38:19.942Z,14.45
2023-04-18T07:40:46.596Z,17.27
2023-04-18T07:43:13.400Z,11.63
2023-04-18T07:45:43.257Z,12.25
2023-04-18T07:48:11.154Z,12.48
2023-04-18T07:50:38.166Z,11.52
2023-04-18T07:53:04.868Z,12.30
2023-04-18T07:55:31.893Z,9.73
2023-04-18T07:57:58.566Z,11.20
2023-04-18T08:00:25.234Z,11.63
2023-04-18T08:02:52.175Z,11.27
2023-04-18T08:05:19.966Z,10.23
2023-04-18T08:07:46.612Z,13.33
2023-04-18T08:10:13.481Z,10.15
2023-04-18T08:12:40.720Z,12.57
2023-04-18T08:15:08.205Z,10.35
2023-04-18T08:17:34.879Z,13.30
2023-04-18T08:20:04.933Z,12.40
2023-04-18T08:22:31.683Z,12.73
2023-04-18T08:25:05.165Z,9.98
2023-04-18T08:27:32.984Z,11.48
2023-04-18T08:30:00.453Z,10.90
2023-04-18T08:32:28.606Z,11.37
2023-04-18T08:34:56.081Z,8.35
2023-04-18T08:37:22.721Z,9.40
2023-04-18T08:39:49.478Z,8.40
2023-04-18T08:42:19.758Z,8.07
2023-04-18T08:44:47.782Z,7.60
2023-04-18T08:47:14.566Z,8.25
2023-04-18T08:49:42.462Z,9.23
2023-04-18T08:52:14.245Z,8.35
2023-04-18T08:54:46.658Z,11.15
2023-04-18T08:57:26.704Z,12.40
2023-04-18T08:59:54.032Z,9.25
2023-04-18T09:02:28.481Z,8.30
2023-04-18T09:04:55.777Z,8.80
2023-04-18T09:07:29.411Z,11.02
2023-04-18T09:09:57.628Z,13.77
2023-04-18T09:12:26.314Z,10.77
2023-04-18T09:14:56.513Z,14.80
2023-04-18T09:17:35.489Z,11.18
2023-04-18T09:20:04.967Z,10.48
2023-04-18T09:23:11.610Z,7.57
2023-04-18T09:25:48.942Z,9.13
2023-04-18T09:28:27.742Z,8.85
2023-04-18T09:31:09.559Z,10.05
2023-04-18T09:33:36.990Z,11.45
2023-04-18T09:36:21.437Z,9.20
2023-04-18T09:38:56.011Z,9.23
2023-04-18T09:41:23.694Z,11.30
2023-04-18T09:43:50.600Z,9.75
2023-04-18T09:46:22.423Z,8.40
2023-04-18T09:48:49.280Z,9.07
2023-04-18T09:51:16.666Z,8.23
2023-04-18T09:53:44.806Z,8.68
2023-04-18T09:56:20.217Z,11.43
2023-04-18T09:58:50.656Z,8.82
2023-04-18T10:01:17.492Z,9.00
2023-04-18T10:03:51.775Z,9.10
2023-04-18T10:06:18.580Z,10.93
2023-04-18T10:08:45.972Z,11.38
2023-04-18T10:11:12.716Z,7.43
2023-04-18T10:13:43.075Z,8.57
2023-04-18T10:16:10.969Z,6.88
2023-04-18T10:18:37.780Z,8.23
2023-04-18T10:21:05.173Z,8.52
2023-04-18T10:23:34.760Z,7.60
2023-04-18T10:26:02.772Z,9.97
2023-04-18T10:28:57.168Z,8.02
2023-04-18T10:31:28.559Z,10.68
2023-04-18T10:36:28.458Z,8.43
2023-04-18T10:39:19.185Z,9.33
2023-04-18T10:41:51.164Z,8.45
2023-04-18T10:44:19.912Z,8.45
2023-04-18T10:46:52.349Z,10.85
2023-04-18T10:49:37.287Z,8.95
2023-04-18T10:52:05.993Z,8.60
2023-04-18T10:54:38.859Z,9.20
2023-04-18T10:57:08.664Z,7.07
2023-04-18T10:59:38.888Z,6.00
2023-04-18T11:02:11.998Z,7.28
2023-04-18T11:04:39.329Z,6.03
2023-04-18T11:07:06.044Z,9.35
2023-04-18T11:09:32.620Z,12.45
2023-04-18T11:12:11.226Z,8.48
2023-04-18T11:14:41.793Z,7.95
2023-04-18T11:17:26.710Z,10.03
2023-04-18T11:20:08.597Z,11.52
2023-04-18T11:22:54.890Z,8.15
2023-04-18T11:25:25.938Z,9.20
2023-04-18T11:27:52.758Z,9.27
2023-04-18T11:30:19.523Z,8.50
2023-04-18T11:32:46.502Z,8.07
2023-04-18T11:35:14.614Z,25.38
2023-04-18T11:37:47.196Z,10.90
2023-04-18T11:40:14.246Z,10.77
2023-04-18T11:42:41.638Z,10.43
2023-04-18T11:45:15.581Z,9.40
2023-04-18T11:47:43.306Z,11.18
2023-04-18T11:50:11.914Z,12.85
2023-04-18T11:52:40.868Z,11.07
2023-04-18T11:55:25.065Z,10.80
2023-04-18T11:57:56.481Z,9.02
2023-04-18T12:00:37.429Z,12.75
2023-04-18T12:03:07.985Z,11.20
2023-04-18T12:05:37.155Z,12.57
2023-04-18T12:08:11.801Z,10.70
2023-04-18T12:10:46.210Z,11.13
2023-04-18T12:13:19.633Z,10.73
2023-04-18T12:15:47.160Z,12.13
2023-04-18T12:18:17.932Z,12.20
2023-04-18T12:20:54.030Z,12.50
2023-04-18T12:23:42.251Z,11.80
2023-04-18T12:26:14.211Z,10.50
2023-04-18T12:28:46.082Z,11.32
2023-04-18T12:31:12.850Z,10.43
2023-04-18T12:33:39.596Z,12.73
2023-04-18T12:36:08.363Z,12.07
2023-04-18T12:38:35.863Z,13.38
2023-04-18T12:41:02.670Z,13.55
2023-04-18T12:43:29.288Z,12.65
2023-04-18T12:45:55.876Z,13.23
2023-04-18T12:48:22.552Z,11.82
2023-04-18T12:50:49.207Z,11.30
2023-04-18T12:53:15.834Z,12.52
2023-04-18T12:55:42.517Z,11.30
2023-04-18T12:58:09.189Z,10.10
2023-04-18T13:00:36.073Z,11.80
2023-04-18T13:03:02.934Z,12.10
2023-04-18T13:05:32.955Z,13.35
2023-04-18T13:10:31.166Z,11.63
2023-04-18T13:12:57.838Z,15.13
2023-04-18T13:15:24.753Z,19.38
2023-04-18T13:17:51.570Z,13.50
2023-04-18T13:20:18.654Z,12.98
2023-04-18T13:22:45.568Z,12.00
2023-04-18T13:25:12.294Z,15.52
2023-04-18T13:27:41.761Z,16.70
2023-04-18T13:30:10.377Z,13.13
2023-04-18T13:32:38.938Z,12.48
2023-04-18T13:35:08.304Z,14.97
2023-04-18T13:37:34.939Z,14.70
2023-04-18T13:40:01.579Z,16.73
2023-04-18T13:42:28.271Z,13.35
2023-04-18T13:44:54.962Z,15.52
2023-04-18T13:47:21.773Z,17.03
2023-04-18T13:49:48.398Z,17.67
2023-04-18T13:52:15.190Z,15.40
2023-04-18T13:54:41.887Z,14.07
2023-04-18T13:57:14.686Z,13.38
2023-04-18T13:59:41.365Z,14.83
2023-04-18T14:02:09.458Z,15.27
2023-04-18T14:04:36.724Z,16.52
2023-04-18T14:07:06.065Z,16.05
2023-04-18T14:09:33.155Z,15.27
2023-04-18T14:11:59.869Z,16.23
2023-04-18T14:14:26.500Z,12.85
2023-04-18T14:16:53.869Z,14.82
2023-04-18T14:19:20.626Z,14.55
2023-04-18T14:21:48.015Z,14.57
2023-04-18T14:24:14.826Z,13.90
2023-04-18T14:26:41.615Z,13.60
2023-04-18T14:29:08.258Z,13.40
2023-04-18T14:31:35.148Z,14.95
2023-04-18T14:34:01.978Z,12.57
2023-04-18T14:36:28.599Z,13.40
2023-04-18T14:38:55.218Z,13.68
2023-04-18T14:41:21.868Z,14.15
2023-04-18T14:43:48.720Z,15.68
2023-04-18T14:46:19.385Z,13.00
2023-04-18T14:48:49.740Z,11.93
2023-04-18T14:51:16.936Z,15.10
2023-04-18T14:53:44.853Z,13.57
2023-04-18T14:56:11.710Z,13.32
2023-04-18T14:58:38.496Z,13.25
2023-04-18T15:01:05.726Z,12.87
2023-04-18T15:03:33.184Z,16.77
2023-04-18T15:06:00.233Z,17.60
2023-04-18T15:08:27.464Z,13.27
2023-04-18T15:10:54.047Z,14.13
2023-04-18T15:13:20.746Z,17.90
2023-04-18T15:15:54.654Z,14.32
2023-04-18T15:18:21.392Z,12.35
2023-04-18T15:20:48.044Z,13.32
2023-04-18T15:23:15.832Z,15.65
2023-04-18T15:25:44.055Z,12.10
2023-04-18T15:28:11.369Z,11.43
2023-04-18T15:30:38.840Z,12.05
2023-04-18T15:33:05.719Z,11.73
2023-04-18T15:35:32.366Z,11.73
2023-04-18T15:37:59.099Z,14.33
2023-04-18T15:40:26.211Z,12.13
2023-04-18T15:42:54.274Z,12.63
2023-04-18T15:45:21.738Z,12.80
2023-04-18T15:47:48.462Z,13.68
2023-04-18T15:50:16.262Z,13.70
2023-04-18T15:52:43.751Z,11.82
2023-04-18T15:55:12.274Z,12.45
2023-04-18T15:57:39.929Z,12.50
2023-04-18T16:00:19.504Z,11.90
2023-04-18T16:02:46.703Z,11.50
2023-04-18T16:05:15.392Z,11.43
2023-04-18T16:07:43.128Z,13.32
2023-04-18T16:10:10.854Z,12.15
2023-04-18T16:12:38.547Z,11.10
2023-04-18T16:15:06.864Z,13.60
2023-04-18T16:17:33.588Z,10.60
2023-04-18T16:20:00.864Z,9.75
2023-04-18T16:22:27.492Z,11.40
2023-04-18T16:24:54.123Z,10.95
2023-04-18T16:27:20.782Z,9.80
2023-04-18T16:29:47.500Z,12.10
2023-04-18T16:32:14.212Z,11.27
2023-04-18T16:34:40.885Z,10.80
2023-04-18T16:37:07.518Z,11.02
2023-04-18T16:39:34.210Z,11.80
2023-04-18T16:42:01.353Z,10.20
2023-04-18T16:44:28.016Z,11.80
2023-04-18T16:46:54.772Z,10.55
2023-04-18T16:49:21.753Z,12.52
2023-04-18T16:51:48.886Z,11.33
2023-04-18T16:54:16.053Z,13.68
2023-04-18T16:56:44.573Z,11.00
2023-04-18T16:59:11.340Z,12.35
2023-04-18T17:01:38.075Z,9.50
2023-04-18T17:04:05.175Z,9.57
2023-04-18T17:06:32.548Z,10.32
2023-04-18T17:08:59.311Z,9.60
